Aviation Digital Data Service (ADDS)

Output produced by METARs form (2052 UTC 01 March 2015)
found at http://aviationweather.gov/adds/metars/
 
KOAJ 012029Z 0120/0218 VRB05KT P6SM VCSH BKN025 BKN035 
     FM012200 VRB05KT 5SM -RA OVC020 
     FM020000 23005KT 4SM -RA OVC015 
     FM020700 24005KT P6SM OVC030 
     FM021500 30005KT P6SM OVC050 AMD LTD TO CLD VIS AND WIND